Mellon Valley, Idaho
Current Conditions -  °F | °C
As of 6:07 PM on Friday 19 Dec 2014 (Local Time) from KJER Reporting Station
Unknown Precip Unknown Precip  
Wind Chill: 31°   Ceiling: 3700
Heat Index: 36°   Visibility: 10mi
Dew Point: 34°   Wind: 6mph
Humidity: 93%   Direction: 110°ESE
Pressure: 30.08"   Gusts: NA
Location:  43.0634°N, 114.867°W
Report Text: KJER 200107Z AUTO 11005KT 10SM UP FEW023 OVC037 02/01 A3008 RMK AO2 RAE06UPB06 P0000 T00220011
Loading
Personal Weather Stations






























Interactive Weather Map New forecast layout! Learn more

10-Day Weather Forecast

Advertisements
Track Severe Weather on mobile